createdAt,value
2018-11-22T00:01:25.302Z,23.43
2018-11-22T00:04:13.070Z,22.10
2018-11-22T00:07:00.665Z,25.03
2018-11-22T00:09:48.329Z,21.57
2018-11-22T00:12:36.181Z,19.73
2018-11-22T00:15:24.186Z,20.63
2018-11-22T00:18:11.732Z,22.13
2018-11-22T00:20:59.319Z,20.33
2018-11-22T00:23:47.110Z,20.77
2018-11-22T00:26:34.928Z,22.97
2018-11-22T00:29:22.470Z,22.50
2018-11-22T00:35:04.039Z,20.37
2018-11-22T00:37:51.960Z,21.00
2018-11-22T00:40:39.507Z,22.10
2018-11-22T00:43:07.585Z,21.20
2018-11-22T00:45:55.115Z,21.33
2018-11-22T00:48:42.727Z,22.17
2018-11-22T00:51:30.288Z,24.63
2018-11-22T00:54:17.837Z,22.47
2018-11-22T00:57:05.450Z,23.73
2018-11-22T01:00:00.180Z,22.23
2018-11-22T01:02:48.086Z,23.30
2018-11-22T01:05:35.608Z,22.83
2018-11-22T01:08:03.679Z,22.63
2018-11-22T01:10:51.229Z,22.87
2018-11-22T01:13:38.814Z,22.60
2018-11-22T01:16:26.352Z,23.17
2018-11-22T01:19:14.118Z,21.47
2018-11-22T01:22:01.718Z,23.53
2018-11-22T01:24:49.498Z,23.50
2018-11-22T01:27:37.131Z,23.63
2018-11-22T01:30:25.377Z,24.87
2018-11-22T01:33:12.928Z,24.17
2018-11-22T01:36:00.472Z,24.37
2018-11-22T01:41:41.547Z,26.17
2018-11-22T01:44:29.098Z,24.30
2018-11-22T01:47:16.657Z,25.00
2018-11-22T01:50:04.920Z,25.83
2018-11-22T01:52:52.784Z,27.33
2018-11-22T01:55:40.334Z,24.93
2018-11-22T01:58:27.873Z,24.50
2018-11-22T02:01:15.474Z,26.60
2018-11-22T02:04:02.992Z,25.73
2018-11-22T02:06:50.542Z,26.23
2018-11-22T02:09:38.088Z,25.57
2018-11-22T02:12:25.617Z,26.07
2018-11-22T02:15:32.376Z,27.23
2018-11-22T02:18:19.900Z,25.30
2018-11-22T02:21:07.443Z,26.17
2018-11-22T02:23:55.023Z,24.33
2018-11-22T02:26:42.857Z,25.57
2018-11-22T02:29:30.382Z,28.30
2018-11-22T02:32:17.922Z,26.23
2018-11-22T02:35:05.946Z,25.17
2018-11-22T02:37:53.503Z,26.17
2018-11-22T02:40:22.629Z,27.00
2018-11-22T02:43:10.229Z,25.03
2018-11-22T02:45:57.794Z,25.27
2018-11-22T02:48:45.341Z,27.03
2018-11-22T02:51:32.870Z,25.50
2018-11-22T02:54:20.413Z,24.50
2018-11-22T02:57:07.993Z,25.73
2018-11-22T02:59:55.515Z,23.40
2018-11-22T03:02:43.085Z,24.00
2018-11-22T03:05:30.597Z,24.17
2018-11-22T03:08:18.140Z,24.83
2018-11-22T03:11:05.811Z,26.20
2018-11-22T03:13:53.388Z,23.77
2018-11-22T03:16:40.905Z,24.07
2018-11-22T03:19:28.447Z,24.00
2018-11-22T03:22:16.227Z,25.40
2018-11-22T03:25:04.041Z,24.13
2018-11-22T03:27:52.169Z,24.37
2018-11-22T03:30:39.944Z,25.27
2018-11-22T03:33:07.990Z,26.17
2018-11-22T03:35:55.542Z,24.50
2018-11-22T03:38:43.172Z,25.60
2018-11-22T03:41:30.736Z,26.60
2018-11-22T03:44:18.330Z,24.00
2018-11-22T03:47:05.818Z,24.77
2018-11-22T03:49:53.381Z,27.50
2018-11-22T03:52:41.587Z,25.23
2018-11-22T03:55:29.104Z,25.87
2018-11-22T03:58:16.678Z,27.43
2018-11-22T04:01:04.348Z,28.87
2018-11-22T04:03:51.862Z,26.97
2018-11-22T04:06:39.429Z,28.63
2018-11-22T04:09:26.981Z,28.93
2018-11-22T04:12:14.540Z,30.17
2018-11-22T04:18:09.076Z,29.27
2018-11-22T04:20:56.593Z,33.53
2018-11-22T04:23:44.383Z,31.70
2018-11-22T04:26:31.893Z,32.50
2018-11-22T04:29:19.424Z,29.57
2018-11-22T04:32:06.786Z,29.53
2018-11-22T04:37:46.160Z,29.80
2018-11-22T04:40:28.003Z,31.23
2018-11-22T04:43:09.086Z,29.10
2018-11-22T04:45:49.915Z,31.90
2018-11-22T04:48:18.018Z,31.07
2018-11-22T04:51:05.789Z,31.03
2018-11-22T04:53:53.320Z,33.20
2018-11-22T04:56:40.862Z,30.17
2018-11-22T04:59:28.452Z,33.67
2018-11-22T05:05:24.265Z,32.60
2018-11-22T05:08:11.841Z,31.13
2018-11-22T05:13:53.168Z,32.40
2018-11-22T05:16:40.515Z,36.47
2018-11-22T05:19:28.106Z,31.70
2018-11-22T05:22:15.626Z,35.10
2018-11-22T05:25:03.170Z,34.30
2018-11-22T05:27:50.745Z,34.07
2018-11-22T05:30:38.258Z,35.57
2018-11-22T05:33:26.077Z,33.73
2018-11-22T05:36:13.894Z,35.43
2018-11-22T05:39:01.422Z,35.70
2018-11-22T05:41:48.962Z,35.00
2018-11-22T05:44:36.555Z,33.90
2018-11-22T05:47:24.090Z,32.93
2018-11-22T05:50:13.368Z,33.23
2018-11-22T05:53:02.642Z,35.93
2018-11-22T05:55:50.418Z,35.43
2018-11-22T05:58:37.970Z,36.03
2018-11-22T06:01:25.774Z,36.00
2018-11-22T06:04:13.305Z,34.17
2018-11-22T06:07:00.822Z,33.13
2018-11-22T06:09:48.457Z,33.43
2018-11-22T06:12:36.001Z,33.80
2018-11-22T06:15:23.670Z,33.73
2018-11-22T06:18:11.200Z,35.73
2018-11-22T06:20:59.041Z,36.63
2018-11-22T06:23:46.564Z,35.70
2018-11-22T06:26:34.131Z,38.20
2018-11-22T06:29:22.140Z,32.17
2018-11-22T06:32:09.865Z,34.57
2018-11-22T06:34:57.395Z,33.83
2018-11-22T06:37:45.245Z,33.93
2018-11-22T06:40:32.802Z,33.07
2018-11-22T06:43:20.335Z,39.53
2018-11-22T06:46:08.503Z,34.13
2018-11-22T06:48:56.020Z,35.73
2018-11-22T06:51:43.803Z,34.10
2018-11-22T06:54:31.381Z,33.93
2018-11-22T06:57:18.897Z,33.17
2018-11-22T07:00:26.637Z,35.67
2018-11-22T07:03:14.209Z,38.57
2018-11-22T07:06:01.757Z,37.43
2018-11-22T07:08:49.288Z,33.77
2018-11-22T07:11:37.385Z,36.47
2018-11-22T07:14:24.956Z,36.50
2018-11-22T07:17:12.470Z,37.47
2018-11-22T07:22:56.197Z,34.40
2018-11-22T07:25:43.087Z,38.63
2018-11-22T07:28:30.627Z,38.20
2018-11-22T07:31:18.193Z,38.23
2018-11-22T07:34:05.839Z,36.83
2018-11-22T07:36:53.379Z,42.13
2018-11-22T07:39:40.917Z,39.53
2018-11-22T07:42:28.434Z,40.10
2018-11-22T07:45:35.200Z,38.40
2018-11-22T07:48:22.736Z,39.57
2018-11-22T07:51:10.309Z,41.60
2018-11-22T07:53:58.055Z,39.63
2018-11-22T07:56:45.577Z,37.13
2018-11-22T07:59:33.245Z,46.33
2018-11-22T08:02:20.882Z,38.40
2018-11-22T08:05:09.243Z,39.50
2018-11-22T08:07:37.570Z,39.73
2018-11-22T08:10:25.250Z,39.87
2018-11-22T08:13:12.797Z,40.70
2018-11-22T08:16:00.338Z,40.30
2018-11-22T08:18:47.911Z,38.03
2018-11-22T08:21:38.271Z,39.83
2018-11-22T08:24:23.022Z,42.77
2018-11-22T08:27:10.599Z,41.40
2018-11-22T08:29:58.169Z,39.63
2018-11-22T08:32:46.743Z,37.00
2018-11-22T08:35:33.355Z,40.73
2018-11-22T08:38:20.885Z,42.83
2018-11-22T08:41:08.424Z,39.20
2018-11-22T08:43:56.005Z,35.37
2018-11-22T08:46:43.616Z,38.33
2018-11-22T08:49:31.146Z,42.60
2018-11-22T08:52:18.961Z,38.63
2018-11-22T08:55:06.963Z,38.50
2018-11-22T08:57:54.541Z,44.53
2018-11-22T09:00:42.542Z,14.90
2018-11-22T09:03:30.540Z,39.20
2018-11-22T09:06:18.121Z,39.53
2018-11-22T09:09:06.874Z,41.17
2018-11-22T09:11:54.392Z,39.13
2018-11-22T09:14:42.160Z,44.93
2018-11-22T09:17:29.768Z,40.37
2018-11-22T09:20:18.796Z,41.97
2018-11-22T09:23:06.618Z,40.10
2018-11-22T09:25:54.155Z,38.40
2018-11-22T09:28:41.704Z,38.63
2018-11-22T09:31:29.228Z,38.07
2018-11-22T09:34:16.764Z,42.10
2018-11-22T09:37:04.331Z,41.20
2018-11-22T09:39:52.087Z,36.93
2018-11-22T09:42:40.009Z,40.93
2018-11-22T09:45:46.733Z,40.27
2018-11-22T09:48:34.572Z,40.43
2018-11-22T09:51:22.363Z,39.23
2018-11-22T09:54:10.149Z,40.13
2018-11-22T09:56:57.988Z,40.87
2018-11-22T09:59:45.527Z,42.20
2018-11-22T10:02:33.060Z,42.20
2018-11-22T10:05:22.243Z,39.00
2018-11-22T10:08:09.650Z,40.23
2018-11-22T10:10:57.275Z,39.00
2018-11-22T10:13:44.913Z,41.70
2018-11-22T10:16:32.443Z,39.27
2018-11-22T10:19:20.353Z,47.47
2018-11-22T10:22:08.119Z,42.77
2018-11-22T10:24:55.666Z,41.00
2018-11-22T10:27:43.668Z,42.77
2018-11-22T10:30:31.465Z,38.40
2018-11-22T10:33:19.016Z,41.20
2018-11-22T10:36:06.587Z,43.30
2018-11-22T10:38:54.134Z,43.60
2018-11-22T10:41:41.652Z,41.67
2018-11-22T10:44:29.189Z,38.87
2018-11-22T10:47:16.737Z,42.67
2018-11-22T10:50:04.867Z,41.10
2018-11-22T10:52:52.452Z,38.70
2018-11-22T10:55:41.593Z,42.13
2018-11-22T10:58:29.145Z,43.90
2018-11-22T11:01:35.995Z,36.07
2018-11-22T11:04:42.801Z,38.03
2018-11-22T11:07:49.582Z,39.67
2018-11-22T11:10:37.126Z,40.47
2018-11-22T11:13:24.639Z,35.77
2018-11-22T11:16:12.207Z,39.53
2018-11-22T11:18:59.751Z,41.30
2018-11-22T11:21:47.278Z,41.07
2018-11-22T11:24:15.351Z,38.07
2018-11-22T11:27:03.312Z,41.43
2018-11-22T11:29:50.530Z,42.07
2018-11-22T11:32:38.095Z,40.53
2018-11-22T11:35:26.850Z,43.83
2018-11-22T11:38:14.694Z,42.60
2018-11-22T11:41:02.578Z,41.87
2018-11-22T11:43:50.369Z,40.63
2018-11-22T11:46:18.844Z,40.07
2018-11-22T11:49:06.441Z,39.80
2018-11-22T11:51:54.234Z,43.63
2018-11-22T11:54:41.797Z,42.93
2018-11-22T11:57:09.873Z,43.87
2018-11-22T11:59:57.508Z,46.90
2018-11-22T12:02:45.749Z,42.47
2018-11-22T12:05:33.286Z,42.37
2018-11-22T12:08:20.851Z,45.27
2018-11-22T12:11:08.371Z,45.07
2018-11-22T12:13:55.908Z,45.17
2018-11-22T12:16:43.803Z,46.33
2018-11-22T12:19:31.608Z,47.70
2018-11-22T12:22:19.381Z,43.53
2018-11-22T12:25:07.631Z,46.70
2018-11-22T12:27:56.927Z,44.57
2018-11-22T12:30:44.457Z,44.07
2018-11-22T12:33:40.423Z,51.17
2018-11-22T12:36:47.427Z,46.57
2018-11-22T12:39:35.182Z,42.93
2018-11-22T12:42:22.727Z,43.10
2018-11-22T12:45:10.295Z,45.27
2018-11-22T12:47:58.067Z,42.90
2018-11-22T12:50:45.546Z,43.80
2018-11-22T12:53:33.354Z,44.10
2018-11-22T12:56:20.981Z,43.53
2018-11-22T12:58:49.621Z,44.60
2018-11-22T13:01:37.258Z,49.23
2018-11-22T13:04:24.739Z,44.30
2018-11-22T13:07:12.300Z,47.50
2018-11-22T13:10:00.348Z,40.67
2018-11-22T13:12:48.883Z,42.57
2018-11-22T13:15:36.486Z,41.73
2018-11-22T13:18:24.116Z,46.40
2018-11-22T13:21:11.713Z,41.70
2018-11-22T13:23:59.258Z,42.13
2018-11-22T13:26:27.500Z,41.23
2018-11-22T13:29:15.113Z,44.43
2018-11-22T13:32:02.689Z,46.20
2018-11-22T13:34:50.328Z,42.53
2018-11-22T13:37:18.732Z,47.60
2018-11-22T13:40:07.221Z,43.00
2018-11-22T13:42:55.199Z,40.70
2018-11-22T13:45:42.804Z,40.47
2018-11-22T13:48:30.454Z,42.47
2018-11-22T13:51:17.995Z,42.23
2018-11-22T13:53:46.252Z,48.97
2018-11-22T13:56:33.796Z,41.80
2018-11-22T13:59:21.430Z,42.07
2018-11-22T14:02:09.005Z,46.70
2018-11-22T14:04:56.719Z,41.47
2018-11-22T14:07:44.260Z,44.13
2018-11-22T14:10:32.064Z,43.13
2018-11-22T14:13:19.594Z,45.07
2018-11-22T14:16:06.979Z,41.77
2018-11-22T14:18:54.275Z,42.40
2018-11-22T14:21:41.810Z,44.17
2018-11-22T14:24:29.763Z,46.83
2018-11-22T14:27:17.411Z,46.73
2018-11-22T14:30:06.162Z,43.10
2018-11-22T14:32:53.852Z,45.97
2018-11-22T14:35:41.614Z,48.40
2018-11-22T14:38:29.165Z,43.87
2018-11-22T14:41:17.002Z,50.80
2018-11-22T14:44:04.678Z,45.93
2018-11-22T14:46:52.195Z,47.50
2018-11-22T14:49:39.975Z,44.97
2018-11-22T14:52:27.629Z,45.40
2018-11-22T14:55:15.429Z,44.67
2018-11-22T14:58:02.969Z,43.27
2018-11-22T15:00:50.506Z,45.90
2018-11-22T15:03:38.121Z,45.17
2018-11-22T15:06:26.189Z,45.70
2018-11-22T15:09:14.110Z,44.83
2018-11-22T15:12:01.591Z,44.77
2018-11-22T15:14:49.142Z,48.13
2018-11-22T15:17:36.724Z,46.93
2018-11-22T15:20:24.269Z,47.40
2018-11-22T15:23:11.844Z,45.43
2018-11-22T15:25:59.681Z,51.03
2018-11-22T15:28:47.286Z,42.40
2018-11-22T15:31:34.862Z,47.80
2018-11-22T15:34:22.666Z,46.47
2018-11-22T15:37:10.671Z,44.57
2018-11-22T15:39:58.305Z,45.33
2018-11-22T15:42:48.476Z,45.50
2018-11-22T15:45:35.969Z,45.47
2018-11-22T15:48:22.985Z,43.10
2018-11-22T15:51:10.681Z,47.30
2018-11-22T15:53:58.369Z,45.93
2018-11-22T15:56:46.078Z,43.73
2018-11-22T15:59:33.601Z,46.27
2018-11-22T16:02:14.941Z,43.93
2018-11-22T16:04:55.888Z,48.77
2018-11-22T16:07:36.849Z,45.63
2018-11-22T16:10:26.084Z,49.57
2018-11-22T16:12:59.762Z,43.90
2018-11-22T16:15:40.744Z,45.83
2018-11-22T16:18:28.439Z,46.63
2018-11-22T16:21:16.066Z,47.90
2018-11-22T16:24:03.740Z,50.37
2018-11-22T16:26:52.071Z,47.03
2018-11-22T16:29:39.695Z,45.37
2018-11-22T16:32:27.388Z,50.10
2018-11-22T16:35:15.980Z,49.10
2018-11-22T16:38:03.672Z,47.70
2018-11-22T16:40:51.316Z,44.43
2018-11-22T16:44:03.184Z,52.97
2018-11-22T16:46:46.107Z,51.03
2018-11-22T16:49:34.097Z,51.03
2018-11-22T16:52:21.702Z,46.33
2018-11-22T16:55:10.284Z,47.57
2018-11-22T16:58:17.473Z,47.97
2018-11-22T17:01:05.522Z,47.67
2018-11-22T17:03:53.310Z,47.57
2018-11-22T17:06:41.229Z,48.83
2018-11-22T17:09:28.968Z,47.23
2018-11-22T17:12:16.633Z,48.00
2018-11-22T17:15:04.678Z,45.97
2018-11-22T17:17:52.711Z,48.93
2018-11-22T17:20:42.021Z,46.40
2018-11-22T17:23:30.139Z,44.17
2018-11-22T17:26:17.791Z,43.30
2018-11-22T17:29:05.440Z,41.97
2018-11-22T17:31:53.302Z,41.40
2018-11-22T17:34:41.153Z,45.20
2018-11-22T17:37:28.905Z,42.70
2018-11-22T17:40:24.183Z,42.30
2018-11-22T17:43:11.852Z,44.70
2018-11-22T17:45:59.567Z,43.17
2018-11-22T17:48:47.278Z,41.30
2018-11-22T17:51:35.028Z,44.97
2018-11-22T17:54:22.728Z,43.80
2018-11-22T17:57:10.423Z,40.40
2018-11-22T17:59:58.249Z,42.93
2018-11-22T18:02:47.172Z,44.53
2018-11-22T18:05:35.080Z,46.37
2018-11-22T18:08:22.662Z,44.37
2018-11-22T18:11:12.641Z,38.07
2018-11-22T18:14:00.848Z,42.30
2018-11-22T18:16:48.957Z,44.13
2018-11-22T18:19:36.835Z,45.20
2018-11-22T18:22:24.646Z,45.13
2018-11-22T18:25:22.382Z,45.20
2018-11-22T18:28:10.200Z,41.23
2018-11-22T18:30:58.223Z,43.43
2018-11-22T18:33:45.914Z,41.43
2018-11-22T18:36:34.078Z,43.80
2018-11-22T18:39:22.102Z,42.97
2018-11-22T18:42:09.854Z,42.47
2018-11-22T18:44:57.624Z,42.40
2018-11-22T18:47:48.324Z,42.77
2018-11-22T18:50:55.648Z,43.73
2018-11-22T18:53:26.269Z,40.00
2018-11-22T18:56:28.145Z,40.23
2018-11-22T18:59:01.943Z,42.83
2018-11-22T19:02:09.195Z,43.83
2018-11-22T19:04:43.648Z,42.33
2018-11-22T19:07:31.375Z,43.63
2018-11-22T19:10:38.215Z,44.00
2018-11-22T19:13:25.935Z,40.83
2018-11-22T19:16:19.761Z,43.87
2018-11-22T19:19:09.924Z,42.33
2018-11-22T19:21:41.030Z,44.00
2018-11-22T19:24:26.475Z,45.00
2018-11-22T19:27:14.208Z,42.07
2018-11-22T19:30:08.868Z,45.60
2018-11-22T19:33:05.126Z,40.90
2018-11-22T19:38:48.646Z,48.07
2018-11-22T19:41:36.596Z,46.40
2018-11-22T19:44:57.414Z,42.93
2018-11-22T19:47:45.534Z,44.43
2018-11-22T19:50:33.265Z,47.13
2018-11-22T19:53:20.882Z,46.80
2018-11-22T19:56:08.981Z,45.50
2018-11-22T19:58:56.862Z,46.47
2018-11-22T20:01:44.523Z,49.03
2018-11-22T20:04:32.110Z,44.40
2018-11-22T20:07:19.786Z,45.43
2018-11-22T20:10:08.541Z,45.57
2018-11-22T20:12:56.218Z,49.20
2018-11-22T20:15:43.799Z,45.43
2018-11-22T20:18:24.091Z,46.03
2018-11-22T20:20:55.343Z,47.70
2018-11-22T20:23:25.785Z,50.43
2018-11-22T20:26:13.470Z,50.40
2018-11-22T20:29:20.691Z,49.47
2018-11-22T20:32:08.252Z,45.83
2018-11-22T20:34:55.955Z,46.83
2018-11-22T20:37:44.526Z,44.57
2018-11-22T20:40:32.290Z,48.43
2018-11-22T20:43:19.915Z,47.37
2018-11-22T20:46:07.627Z,49.47
2018-11-22T20:48:55.241Z,50.50
2018-11-22T20:51:43.025Z,50.90
2018-11-22T20:54:30.617Z,51.73
2018-11-22T20:57:18.177Z,51.70
2018-11-22T21:00:07.663Z,51.47
2018-11-22T21:02:55.205Z,55.83
2018-11-22T21:05:42.792Z,54.83
2018-11-22T21:08:30.541Z,53.83
2018-11-22T21:11:18.065Z,49.53
2018-11-22T21:14:06.699Z,50.20
2018-11-22T21:16:54.246Z,52.73
2018-11-22T21:19:42.010Z,48.70
2018-11-22T21:22:29.586Z,50.77
2018-11-22T21:25:18.406Z,48.53
2018-11-22T21:28:06.001Z,49.33
2018-11-22T21:30:53.596Z,51.57
2018-11-22T21:33:41.193Z,51.13
2018-11-22T21:36:28.690Z,49.30
2018-11-22T21:39:16.260Z,49.73
2018-11-22T21:42:03.758Z,52.40
2018-11-22T21:44:51.298Z,54.00
2018-11-22T21:47:38.849Z,54.60
2018-11-22T21:50:27.283Z,51.10
2018-11-22T21:53:14.892Z,50.03
2018-11-22T21:56:02.456Z,53.80
2018-11-22T21:58:50.024Z,54.67
2018-11-22T22:01:42.758Z,50.33
2018-11-22T22:04:27.040Z,51.23
2018-11-22T22:07:19.550Z,52.90
2018-11-22T22:10:05.905Z,51.77
2018-11-22T22:12:55.051Z,53.57
2018-11-22T22:15:41.699Z,52.70
2018-11-22T22:18:32.702Z,56.43
2018-11-22T22:21:20.489Z,53.83
2018-11-22T22:27:15.194Z,56.17
2018-11-22T22:30:02.741Z,56.77
2018-11-22T22:32:51.779Z,60.83
2018-11-22T22:35:38.969Z,57.10
2018-11-22T22:38:29.818Z,51.07
2018-11-22T22:41:17.349Z,54.70
2018-11-22T22:44:04.903Z,51.20
2018-11-22T22:46:52.442Z,57.80
2018-11-22T22:49:40.116Z,53.97
2018-11-22T22:52:27.695Z,55.77
2018-11-22T22:55:15.461Z,58.50
2018-11-22T22:58:03.018Z,53.80
2018-11-22T23:00:51.355Z,55.13
2018-11-22T23:03:39.383Z,54.87
2018-11-22T23:06:26.938Z,53.40
2018-11-22T23:09:14.513Z,60.23
2018-11-22T23:12:02.065Z,57.90
2018-11-22T23:14:49.676Z,54.67
2018-11-22T23:17:37.334Z,54.07
2018-11-22T23:20:26.317Z,59.73
2018-11-22T23:23:13.867Z,61.80
2018-11-22T23:26:01.409Z,58.27
2018-11-22T23:28:49.192Z,56.73
2018-11-22T23:31:36.800Z,59.57
2018-11-22T23:34:24.523Z,54.67
2018-11-22T23:37:12.074Z,56.93
2018-11-22T23:40:00.096Z,61.07
2018-11-22T23:42:47.730Z,56.97
2018-11-22T23:45:35.251Z,61.33
2018-11-22T23:48:22.831Z,63.77
2018-11-22T23:51:10.653Z,59.40
2018-11-22T23:53:58.232Z,66.07
2018-11-22T23:56:45.797Z,59.40
2018-11-22T23:59:33.573Z,65.57
